Archival Weather

Chicago O'Hare International

Chicago, Illinois (KORD)

Report from: Sunday, December 4, 2022 11:51 AM CST
Current time: Saturday, June 22, 2024 5:03 AM CDT

Current weather – Weather history – Daily summaries
Weather forecast

Temperature1.7°C (35.1°F)
Wind chill-3.4°C (25.9°F)
Dew point-10.0°C (14.0°F)
Winds 12 kts (6.2 m/s, 13.8 mph) Southwest (230°)
Visibility10 mi. (16.1 km)
Clouds Sky clear
Altimeter30.14 in.Hg (1021 mB)
Relative humidity41 %
Density altitude-1,846 ft. (-563 m)
Sea-level pressure102.1 kPa (1021 mB, 30.16 in.Hg)
Max temp last 6 hours1.7°C (35.1°F)
Min temp last 6 hours-6.7°C (19.9°F)
Remarks System requires maintenance
Automated weather observing station with precipitation discriminator
Pressure falling more quickly
Flight conditions Visual Meteorological Conditions
Raw dataKORD 041751Z 23012KT 10SM CLR 02/M10 A3014 RMK AO2 SLP214 T00171100 10017 21067 58024 $
An error has occurred. This application may no longer respond until reloaded. Reload 🗙